Time;durP1;ratioP1;P1;durP2;ratioP2;P2;SDS_P1;SDS_P2;PMS_P1;PMS_P2;Temp;Humidity;BMP_temperature;BMP_pressure;BME280_temperature;BME280_humidity;BME280_pressure;Samples;Min_cycle;Max_cycle;Signal;HPM_P1;HPM_P2
2022/06/20 00:02:03;;;;;;;12.95;6.30;;;;;;;;;;5053862;28;20080;-67
2022/06/20 00:04:30;;;;;;;16.90;6.40;;;;;;;;;;5055120;28;20060;-67
2022/06/20 00:06:56;;;;;;;14.63;6.45;;;;;;;;;;5055088;28;20049;-67
2022/06/20 00:09:23;;;;;;;9.63;6.28;;;;;;;;;;5054992;28;20495;-67
2022/06/20 00:11:50;;;;;;;13.57;6.55;;;;;;;;;;5054187;28;20049;-67
2022/06/20 00:14:19;;;;;;;12.50;5.95;;;;;;;;;;5053361;28;20049;-67
2022/06/20 00:16:46;;;;;;;14.68;7.35;;;;;;;;;;5054977;28;20053;-67
2022/06/20 00:19:14;;;;;;;12.07;6.25;;;;;;;;;;5054737;28;20048;-67
2022/06/20 00:21:40;;;;;;;11.43;5.93;;;;;;;;;;5054762;28;20056;-67
2022/06/20 00:24:08;;;;;;;13.98;6.22;;;;;;;;;;5054533;28;20053;-68
2022/06/20 00:26:35;;;;;;;11.80;6.88;;;;;;;;;;5054603;28;20107;-67
2022/06/20 00:29:06;;;;;;;17.58;6.85;;;;;;;;;;5054462;28;20045;-67
2022/06/20 00:31:34;;;;;;;15.38;6.88;;;;;;;;;;5053348;28;20048;-67
2022/06/20 00:34:01;;;;;;;15.27;6.25;;;;;;;;;;5054336;28;20049;-67
2022/06/20 00:36:27;;;;;;;16.58;6.40;;;;;;;;;;5054355;28;20053;-68
2022/06/20 00:38:55;;;;;;;11.57;6.35;;;;;;;;;;5053898;28;20049;-67
2022/06/20 00:41:27;;;;;;;12.30;6.28;;;;;;;;;;5052824;28;20487;-68
2022/06/20 00:43:54;;;;;;;12.07;6.35;;;;;;;;;;5052932;28;20449;-68
2022/06/20 00:46:56;;;;;;;10.68;6.63;;;;;;;;;;5054431;28;20139;-68
2022/06/20 00:49:41;;;;;;;14.68;7.22;;;;;;;;;;5041522;28;20411;-67
2022/06/20 00:52:31;;;;;;;12.52;6.03;;;;;;;;;;5031177;28;20463;-69
2022/06/20 00:55:20;;;;;;;12.23;6.22;;;;;;;;;;5017449;28;20049;-68
2022/06/20 00:58:00;;;;;;;15.43;6.60;;;;;;;;;;5026010;28;20060;-67
2022/06/20 01:00:28;;;;;;;17.35;6.45;;;;;;;;;;5034082;28;20053;-68
2022/06/20 01:03:17;;;;;;;13.75;6.82;;;;;;;;;;5043382;28;20049;-67
2022/06/20 01:05:52;;;;;;;15.20;6.85;;;;;;;;;;5053769;28;20531;-66
2022/06/20 01:08:28;;;;;;;13.60;7.40;;;;;;;;;;5043558;28;20516;-66
2022/06/20 01:11:04;;;;;;;18.25;7.13;;;;;;;;;;5033820;28;20042;-68
2022/06/20 01:13:31;;;;;;;12.38;6.45;;;;;;;;;;5032608;28;20111;-67
2022/06/20 01:16:14;;;;;;;14.45;6.70;;;;;;;;;;5033908;28;20079;-67
2022/06/20 01:18:43;;;;;;;15.63;7.55;;;;;;;;;;5043827;28;20045;-66
2022/06/20 01:21:12;;;;;;;19.88;8.52;;;;;;;;;;5035859;28;20056;-67
2022/06/20 01:23:45;;;;;;;29.45;11.07;;;;;;;;;;5034640;28;20420;-66
2022/06/20 01:26:58;;;;;;;22.55;10.05;;;;;;;;;;5033730;28;20053;-67
2022/06/20 01:29:24;;;;;;;18.88;10.75;;;;;;;;;;4980751;28;20094;-66
2022/06/20 01:31:55;;;;;;;18.73;11.48;;;;;;;;;;4991645;28;20058;-67
2022/06/20 01:34:22;;;;;;;30.90;11.98;;;;;;;;;;5002323;28;20057;-65
2022/06/20 01:39:38;;;;;;;23.35;14.10;;;;;;;;;;5032224;28;20045;-66
2022/06/20 01:42:19;;;;;;;28.02;12.75;;;;;;;;;;5032114;28;20057;-65
2022/06/20 01:48:17;;;;;;;24.52;13.43;;;;;;;;;;5012299;28;20082;-66
2022/06/20 01:50:44;;;;;;;26.00;14.48;;;;;;;;;;5011125;28;20046;-66
2022/06/20 01:53:12;;;;;;;27.52;15.43;;;;;;;;;;5012367;28;20054;-66
2022/06/20 01:55:40;;;;;;;23.05;15.40;;;;;;;;;;5014192;28;20100;-66
2022/06/20 01:58:25;;;;;;;43.33;26.58;;;;;;;;;;5020708;28;20060;-66
2022/06/20 02:00:51;;;;;;;27.27;17.55;;;;;;;;;;5033048;28;20058;-67
2022/06/20 02:03:20;;;;;;;21.63;16.27;;;;;;;;;;5032764;28;20057;-66
2022/06/20 02:05:48;;;;;;;27.95;15.52;;;;;;;;;;5031624;28;20132;-66
2022/06/20 02:08:17;;;;;;;32.92;18.52;;;;;;;;;;5032879;28;20132;-66
2022/06/20 02:10:54;;;;;;;29.27;16.73;;;;;;;;;;5032579;28;20056;-65
2022/06/20 02:13:21;;;;;;;26.15;16.35;;;;;;;;;;5065555;22;20200;-67
2022/06/20 02:15:49;;;;;;;28.60;17.13;;;;;;;;;;5051333;28;20048;-66
2022/06/20 02:18:16;;;;;;;31.35;18.63;;;;;;;;;;5051353;28;20060;-66
2022/06/20 02:20:47;;;;;;;22.33;15.43;;;;;;;;;;5051158;28;20474;-67
2022/06/20 02:23:23;;;;;;;23.13;16.27;;;;;;;;;;5031271;28;20060;-66
2022/06/20 02:25:50;;;;;;;20.52;15.57;;;;;;;;;;5031325;28;20487;-67
2022/06/20 02:28:22;;;;;;;20.98;13.95;;;;;;;;;;5030590;28;20050;-66
2022/06/20 02:30:48;;;;;;;20.70;13.98;;;;;;;;;;5031240;28;20049;-67
2022/06/20 02:33:18;;;;;;;19.25;14.38;;;;;;;;;;5032298;28;20462;-67
2022/06/20 02:35:45;;;;;;;19.70;14.85;;;;;;;;;;5047360;28;20053;-67
2022/06/20 02:38:11;;;;;;;20.20;14.57;;;;;;;;;;5031152;28;20057;-67
2022/06/20 02:40:41;;;;;;;24.35;14.77;;;;;;;;;;5032454;28;20055;-67
2022/06/20 02:43:11;;;;;;;22.25;15.07;;;;;;;;;;5046847;28;20050;-67
2022/06/20 02:45:38;;;;;;;20.27;14.68;;;;;;;;;;5032270;28;20519;-67
2022/06/20 02:48:06;;;;;;;20.67;15.70;;;;;;;;;;5026032;28;20049;-67
2022/06/20 02:50:39;;;;;;;20.55;13.88;;;;;;;;;;5027530;28;20045;-67
2022/06/20 02:53:14;;;;;;;22.45;14.20;;;;;;;;;;5011139;28;20058;-68
2022/06/20 02:55:40;;;;;;;19.15;14.23;;;;;;;;;;5011224;28;20049;-67
2022/06/20 02:58:13;;;;;;;23.23;14.95;;;;;;;;;;5011040;28;20073;-67
2022/06/20 03:00:44;;;;;;;22.75;15.63;;;;;;;;;;5027071;28;20491;-67
2022/06/20 03:03:15;;;;;;;24.02;16.98;;;;;;;;;;5010730;28;20420;-67
2022/06/20 03:05:41;;;;;;;31.27;18.42;;;;;;;;;;5011155;28;20053;-68
2022/06/20 03:08:10;;;;;;;25.80;16.63;;;;;;;;;;5016978;28;20416;-67
2022/06/20 03:10:42;;;;;;;26.77;17.02;;;;;;;;;;5030550;28;20049;-66
2022/06/20 03:13:09;;;;;;;28.20;15.63;;;;;;;;;;5046755;28;20057;-67
2022/06/20 03:15:36;;;;;;;21.38;15.48;;;;;;;;;;5030525;28;20291;-67
2022/06/20 03:18:04;;;;;;;19.05;14.55;;;;;;;;;;5026872;28;20400;-67
2022/06/20 03:20:30;;;;;;;18.67;14.52;;;;;;;;;;5010943;28;20057;-67
2022/06/20 03:23:20;;;;;;;23.27;14.75;;;;;;;;;;5011956;28;20050;-67
2022/06/20 03:25:46;;;;;;;24.58;15.45;;;;;;;;;;5010734;28;20050;-67
2022/06/20 03:28:15;;;;;;;18.70;14.93;;;;;;;;;;5011301;28;20054;-67
2022/06/20 03:31:01;;;;;;;22.35;15.93;;;;;;;;;;5010744;28;20046;-68
2022/06/20 03:33:29;;;;;;;25.63;15.70;;;;;;;;;;5011718;28;20620;-66
2022/06/20 03:36:10;;;;;;;25.95;16.40;;;;;;;;;;5010678;28;20054;-68
2022/06/20 03:38:37;;;;;;;26.27;17.20;;;;;;;;;;5019264;28;20042;-67
2022/06/20 03:41:05;;;;;;;23.48;17.20;;;;;;;;;;5046822;28;20052;-67
2022/06/20 03:43:31;;;;;;;26.63;18.10;;;;;;;;;;5046729;28;20049;-67
2022/06/20 03:46:00;;;;;;;30.13;18.65;;;;;;;;;;5036229;28;20056;-67
2022/06/20 03:48:38;;;;;;;25.60;17.83;;;;;;;;;;5010592;28;20056;-67
2022/06/20 03:51:12;;;;;;;30.08;18.38;;;;;;;;;;5010180;28;20057;-67
2022/06/20 03:53:39;;;;;;;30.35;20.23;;;;;;;;;;5010481;28;20064;-67
2022/06/20 03:56:31;;;;;;;30.13;19.38;;;;;;;;;;5025265;28;20129;-68
2022/06/20 03:59:12;;;;;;;32.38;20.98;;;;;;;;;;5010549;28;20087;-67
2022/06/20 04:01:45;;;;;;;29.20;20.38;;;;;;;;;;5010504;28;20057;-68
2022/06/20 04:04:24;;;;;;;26.95;22.20;;;;;;;;;;5020253;28;20053;-68
2022/06/20 04:06:52;;;;;;;27.77;20.38;;;;;;;;;;5031389;28;20125;-69
2022/06/20 04:12:23;;;;;;;33.83;20.52;;;;;;;;;;5036032;28;20054;-68
2022/06/20 04:15:07;;;;;;;31.00;19.70;;;;;;;;;;5013253;28;20427;-67
2022/06/20 04:18:29;;;;;;;24.95;15.80;;;;;;;;;;5030286;28;20500;-67
2022/06/20 04:21:03;;;;;;;27.88;16.63;;;;;;;;;;5015156;28;20130;-67
2022/06/20 04:23:32;;;;;;;33.65;17.77;;;;;;;;;;5015276;28;20050;-67
2022/06/20 04:26:02;;;;;;;25.55;16.33;;;;;;;;;;5015247;28;20060;-67
2022/06/20 04:28:49;;;;;;;23.98;13.85;;;;;;;;;;5013851;28;20053;-67
2022/06/20 04:31:31;;;;;;;19.33;12.88;;;;;;;;;;5030009;28;20042;-67
2022/06/20 04:34:13;;;;;;;24.48;12.82;;;;;;;;;;5029332;28;20054;-67
2022/06/20 04:36:45;;;;;;;20.65;10.60;;;;;;;;;;5014055;28;20054;-67
2022/06/20 04:39:39;;;;;;;26.30;12.57;;;;;;;;;;5029844;28;20045;-69
2022/06/20 04:42:20;;;;;;;14.90;12.27;;;;;;;;;;5019586;28;20046;-69
2022/06/20 04:45:20;;;;;;;23.92;12.75;;;;;;;;;;5014647;28;20054;-69
2022/06/20 04:47:55;;;;;;;24.98;12.20;;;;;;;;;;5029910;28;20421;-68
2022/06/20 04:50:28;;;;;;;22.33;12.23;;;;;;;;;;5029781;28;20054;-69
2022/06/20 04:53:05;;;;;;;17.50;10.25;;;;;;;;;;5013157;28;20050;-69
2022/06/20 04:55:33;;;;;;;20.60;11.50;;;;;;;;;;5029007;28;20129;-68
2022/06/20 04:58:02;;;;;;;20.25;10.45;;;;;;;;;;5009210;28;20049;-76
2022/06/20 05:00:34;;;;;;;19.60;10.27;;;;;;;;;;5008148;28;20050;-70
2022/06/20 05:03:01;;;;;;;16.85;10.13;;;;;;;;;;5013783;28;20049;-69
2022/06/20 05:05:29;;;;;;;15.05;8.88;;;;;;;;;;5024424;28;20095;-67
2022/06/20 05:07:56;;;;;;;16.40;10.00;;;;;;;;;;5033500;28;20398;-67
2022/06/20 05:10:33;;;;;;;23.98;11.45;;;;;;;;;;5020269;28;20047;-68
2022/06/20 05:13:12;;;;;;;17.52;10.73;;;;;;;;;;5011780;28;20412;-67
2022/06/20 05:15:41;;;;;;;20.02;9.57;;;;;;;;;;5005004;28;20077;-67
2022/06/20 05:18:41;;;;;;;18.38;10.50;;;;;;;;;;5019251;28;20053;-68
2022/06/20 05:21:20;;;;;;;11.90;9.15;;;;;;;;;;4983690;28;20068;-66
2022/06/20 05:23:55;;;;;;;19.75;10.85;;;;;;;;;;5011402;28;20045;-68
2022/06/20 05:26:24;;;;;;;19.05;10.02;;;;;;;;;;5009311;28;20065;-66
2022/06/20 05:28:52;;;;;;;18.10;8.80;;;;;;;;;;5025708;28;20046;-68
2022/06/20 05:31:32;;;;;;;14.48;8.73;;;;;;;;;;5037352;28;20045;-68
2022/06/20 05:34:32;;;;;;;14.30;7.70;;;;;;;;;;5022985;28;20068;-67
2022/06/20 05:37:19;;;;;;;16.15;8.13;;;;;;;;;;5002996;28;20532;-67
2022/06/20 05:39:50;;;;;;;13.13;8.40;;;;;;;;;;5013191;28;20050;-67
2022/06/20 05:42:17;;;;;;;12.07;8.75;;;;;;;;;;5019280;28;20033;-68
2022/06/20 05:44:44;;;;;;;15.68;9.40;;;;;;;;;;5014187;28;20054;-68
2022/06/20 05:47:16;;;;;;;12.48;7.80;;;;;;;;;;5019265;28;20057;-67
2022/06/20 05:49:50;;;;;;;15.10;8.35;;;;;;;;;;5017430;28;20459;-67
2022/06/20 05:52:22;;;;;;;13.82;7.25;;;;;;;;;;5006017;28;20575;-69
2022/06/20 05:54:53;;;;;;;11.27;6.75;;;;;;;;;;5019122;28;20056;-68
2022/06/20 05:57:21;;;;;;;13.90;6.70;;;;;;;;;;5013588;28;20049;-68
2022/06/20 06:00:16;;;;;;;13.93;6.22;;;;;;;;;;5018153;28;20120;-67
2022/06/20 06:02:47;;;;;;;11.75;6.32;;;;;;;;;;5026359;28;20049;-68
2022/06/20 06:05:35;;;;;;;12.20;6.13;;;;;;;;;;5018091;28;20054;-68
2022/06/20 06:08:18;;;;;;;11.07;5.95;;;;;;;;;;5014788;28;20053;-68
2022/06/20 06:11:27;;;;;;;10.55;6.20;;;;;;;;;;5018144;28;20046;-68
2022/06/20 06:14:08;;;;;;;14.25;7.28;;;;;;;;;;5034497;28;20045;-68
2022/06/20 06:16:58;;;;;;;13.93;6.82;;;;;;;;;;5028206;28;20534;-68
2022/06/20 06:20:00;;;;;;;10.60;6.82;;;;;;;;;;5028474;28;20057;-68
2022/06/20 06:22:31;;;;;;;12.27;6.78;;;;;;;;;;5014262;28;20116;-67
2022/06/20 06:24:59;;;;;;;14.10;6.60;;;;;;;;;;5034415;28;20049;-66
2022/06/20 06:27:29;;;;;;;12.60;6.63;;;;;;;;;;5026571;28;20056;-67
2022/06/20 06:30:02;;;;;;;12.63;6.25;;;;;;;;;;5008372;28;20493;-66
2022/06/20 06:32:50;;;;;;;10.75;6.35;;;;;;;;;;5010015;28;20045;-67
2022/06/20 06:35:29;;;;;;;14.95;6.90;;;;;;;;;;5032490;28;20054;-65
2022/06/20 06:38:02;;;;;;;14.77;7.95;;;;;;;;;;5013270;28;20423;-67
2022/06/20 06:40:38;;;;;;;11.93;6.60;;;;;;;;;;5020953;28;20226;-65
2022/06/20 06:43:18;;;;;;;12.35;6.90;;;;;;;;;;5017274;28;20058;-65
2022/06/20 06:45:46;;;;;;;11.10;6.85;;;;;;;;;;5015630;28;20551;-65
2022/06/20 06:48:27;;;;;;;12.00;7.35;;;;;;;;;;5017255;28;20057;-66
2022/06/20 06:51:08;;;;;;;10.63;6.68;;;;;;;;;;5020061;28;20413;-64
2022/06/20 06:53:38;;;;;;;11.45;6.57;;;;;;;;;;5033472;28;20056;-70
2022/06/20 06:56:22;;;;;;;13.35;5.68;;;;;;;;;;5022896;28;20508;-71
2022/06/20 06:59:14;;;;;;;12.18;5.03;;;;;;;;;;5016490;28;20049;-70
2022/06/20 07:01:43;;;;;;;13.90;5.43;;;;;;;;;;5005135;28;20048;-65
2022/06/20 07:04:26;;;;;;;11.60;5.53;;;;;;;;;;5018629;28;20049;-70
2022/06/20 07:07:12;;;;;;;12.30;5.90;;;;;;;;;;5027086;28;20558;-68
2022/06/20 07:09:48;;;;;;;12.75;6.60;;;;;;;;;;5021287;28;20048;-70
2022/06/20 07:12:27;;;;;;;12.27;5.82;;;;;;;;;;5018179;28;20076;-69
2022/06/20 07:15:13;;;;;;;14.00;6.13;;;;;;;;;;5033260;28;20060;-69
2022/06/20 07:17:59;;;;;;;13.10;6.90;;;;;;;;;;5034692;28;20420;-69
2022/06/20 07:20:32;;;;;;;14.02;6.93;;;;;;;;;;5020124;28;20053;-69
2022/06/20 07:23:00;;;;;;;15.55;7.15;;;;;;;;;;5037548;28;20053;-66
2022/06/20 07:25:35;;;;;;;12.93;6.53;;;;;;;;;;5037579;28;20052;-65
2022/06/20 07:28:14;;;;;;;13.57;7.15;;;;;;;;;;5022766;28;20061;-67
2022/06/20 07:30:44;;;;;;;11.70;6.85;;;;;;;;;;5017815;28;20049;-74
2022/06/20 07:33:17;;;;;;;12.50;7.55;;;;;;;;;;5008518;28;20054;-76
2022/06/20 07:35:48;;;;;;;12.45;6.63;;;;;;;;;;5022906;28;20041;-73
2022/06/20 07:38:19;;;;;;;11.75;6.45;;;;;;;;;;5024423;28;20156;-72
2022/06/20 07:41:06;;;;;;;11.60;6.65;;;;;;;;;;5030480;28;20382;-71
2022/06/20 07:43:35;;;;;;;13.57;6.07;;;;;;;;;;5004651;28;20071;-72
2022/06/20 07:46:08;;;;;;;9.82;6.50;;;;;;;;;;5024462;28;20092;-76
2022/06/20 07:48:37;;;;;;;11.30;6.03;;;;;;;;;;5034757;28;20058;-66
2022/06/20 07:51:20;;;;;;;10.75;5.93;;;;;;;;;;5030292;28;20417;-75
2022/06/20 07:53:55;;;;;;;12.13;6.50;;;;;;;;;;5040806;28;20416;-75
2022/06/20 07:56:37;;;;;;;12.30;5.68;;;;;;;;;;5020683;28;20060;-73
2022/06/20 07:59:31;;;;;;;9.45;5.53;;;;;;;;;;5047473;28;20104;-66
2022/06/20 08:02:12;;;;;;;13.80;5.68;;;;;;;;;;5021459;28;20068;-65
2022/06/20 08:04:39;;;;;;;10.27;5.82;;;;;;;;;;5020800;28;20045;-66
2022/06/20 08:07:11;;;;;;;16.45;5.78;;;;;;;;;;5021403;28;20050;-65
2022/06/20 08:09:44;;;;;;;11.40;5.35;;;;;;;;;;5019417;28;20493;-66
2022/06/20 08:12:36;;;;;;;11.30;4.97;;;;;;;;;;5013864;28;20434;-65
2022/06/20 08:15:11;;;;;;;14.82;5.28;;;;;;;;;;5045443;23;20050;-66
2022/06/20 08:17:38;;;;;;;11.57;5.18;;;;;;;;;;5017240;28;20046;-72
2022/06/20 08:20:05;;;;;;;13.80;5.60;;;;;;;;;;4988976;28;20054;-73
2022/06/20 08:22:48;;;;;;;15.63;6.03;;;;;;;;;;5004507;28;20122;-72
2022/06/20 08:25:16;;;;;;;12.60;4.53;;;;;;;;;;5016640;28;20053;-67
2022/06/20 08:27:50;;;;;;;13.95;5.38;;;;;;;;;;5022542;28;20042;-66
2022/06/20 08:30:40;;;;;;;9.73;4.93;;;;;;;;;;5021997;28;20062;-74
2022/06/20 08:33:20;;;;;;;16.90;5.30;;;;;;;;;;5004286;28;20049;-76
2022/06/20 08:35:51;;;;;;;8.25;4.95;;;;;;;;;;5021958;28;20049;-72
2022/06/20 08:38:26;;;;;;;8.48;4.95;;;;;;;;;;5005326;28;20046;-68
2022/06/20 08:40:59;;;;;;;12.55;5.93;;;;;;;;;;5019810;28;20499;-73
2022/06/20 08:43:42;;;;;;;10.98;4.93;;;;;;;;;;5021374;28;20140;-72
2022/06/20 08:46:21;;;;;;;10.35;4.72;;;;;;;;;;5017213;28;20112;-71
2022/06/20 08:49:28;;;;;;;13.97;5.10;;;;;;;;;;5023701;28;20096;-73
2022/06/20 08:52:07;;;;;;;8.30;4.38;;;;;;;;;;5023205;28;20787;-68
2022/06/20 08:54:52;;;;;;;10.48;4.75;;;;;;;;;;5019917;28;20054;-74
2022/06/20 08:57:30;;;;;;;14.38;4.93;;;;;;;;;;5016903;28;20054;-75
2022/06/20 09:00:19;;;;;;;9.90;4.22;;;;;;;;;;5020083;28;20049;-71
2022/06/20 09:02:54;;;;;;;11.48;4.63;;;;;;;;;;5021737;28;20056;-72
2022/06/20 09:05:54;;;;;;;14.60;4.40;;;;;;;;;;5020959;28;20671;-72
2022/06/20 09:08:40;;;;;;;11.00;4.82;;;;;;;;;;5035099;28;20049;-73
2022/06/20 09:11:12;;;;;;;7.95;4.38;;;;;;;;;;5022525;28;20046;-71
2022/06/20 09:14:11;;;;;;;11.43;4.35;;;;;;;;;;5014954;28;20054;-72
2022/06/20 09:17:02;;;;;;;9.77;4.47;;;;;;;;;;5010526;28;20054;-72
2022/06/20 09:19:47;;;;;;;10.65;4.68;;;;;;;;;;5016029;28;20054;-70
2022/06/20 09:22:22;;;;;;;8.82;4.60;;;;;;;;;;5018741;28;20076;-70
2022/06/20 09:25:14;;;;;;;9.73;4.78;;;;;;;;;;5019433;28;20417;-69
2022/06/20 09:28:10;;;;;;;9.60;4.60;;;;;;;;;;5023982;28;20072;-73
2022/06/20 09:30:55;;;;;;;8.23;4.00;;;;;;;;;;5010188;28;20053;-71
2022/06/20 09:33:35;;;;;;;7.03;4.47;;;;;;;;;;5022613;28;20467;-72
2022/06/20 09:36:26;;;;;;;11.77;4.88;;;;;;;;;;5017945;28;20084;-73
2022/06/20 09:38:58;;;;;;;7.38;4.30;;;;;;;;;;5015846;28;20461;-72
2022/06/20 09:41:36;;;;;;;10.38;4.45;;;;;;;;;;5020444;28;20386;-72
2022/06/20 09:44:23;;;;;;;11.85;4.30;;;;;;;;;;5025203;28;20046;-72
2022/06/20 09:47:08;;;;;;;8.38;4.28;;;;;;;;;;5021567;28;20045;-68
2022/06/20 09:49:59;;;;;;;9.95;4.57;;;;;;;;;;5016463;28;20133;-68
2022/06/20 09:52:47;;;;;;;10.30;4.30;;;;;;;;;;5018764;28;20053;-68
2022/06/20 09:55:38;;;;;;;5.95;4.03;;;;;;;;;;5017248;28;20100;-66
2022/06/20 09:58:27;;;;;;;6.10;3.78;;;;;;;;;;5017531;28;20508;-68
2022/06/20 10:01:01;;;;;;;11.18;4.18;;;;;;;;;;5023097;28;20049;-69
2022/06/20 10:03:41;;;;;;;9.90;4.32;;;;;;;;;;5022009;28;20116;-68
2022/06/20 10:06:46;;;;;;;9.50;4.13;;;;;;;;;;5019511;28;20095;-68
2022/06/20 10:09:42;;;;;;;10.35;5.60;;;;;;;;;;5033284;28;20427;-68
2022/06/20 10:12:18;;;;;;;10.82;4.03;;;;;;;;;;5019043;28;20053;-67
2022/06/20 10:14:51;;;;;;;8.90;4.03;;;;;;;;;;5018315;28;20500;-68
2022/06/20 10:17:33;;;;;;;10.07;4.47;;;;;;;;;;5019775;28;20053;-68
2022/06/20 10:20:12;;;;;;;7.22;3.97;;;;;;;;;;5004399;28;20060;-68
2022/06/20 10:22:48;;;;;;;11.95;5.10;;;;;;;;;;5005755;28;20049;-68
2022/06/20 10:25:25;;;;;;;8.27;3.97;;;;;;;;;;5001493;28;20045;-69
2022/06/20 10:28:47;;;;;;;9.98;4.38;;;;;;;;;;5027662;28;20046;-67
2022/06/20 10:31:28;;;;;;;9.18;3.70;;;;;;;;;;4975183;28;20060;-66
2022/06/20 10:34:17;;;;;;;10.60;4.88;;;;;;;;;;5010108;28;20049;-67
2022/06/20 10:36:59;;;;;;;14.10;4.65;;;;;;;;;;5018322;28;20042;-67
2022/06/20 10:39:39;;;;;;;9.32;4.05;;;;;;;;;;5002885;28;20042;-71
2022/06/20 10:42:27;;;;;;;13.60;4.75;;;;;;;;;;5020740;28;20056;-72
2022/06/20 10:44:53;;;;;;;8.68;3.55;;;;;;;;;;5007822;28;20045;-70
2022/06/20 10:47:30;;;;;;;7.18;3.67;;;;;;;;;;5017042;28;20050;-68
2022/06/20 10:50:15;;;;;;;9.88;3.67;;;;;;;;;;5015335;28;20504;-68
2022/06/20 10:52:54;;;;;;;9.95;4.28;;;;;;;;;;5021041;28;20045;-67
2022/06/20 10:55:33;;;;;;;8.48;4.07;;;;;;;;;;5015021;28;20061;-66
2022/06/20 10:58:18;;;;;;;13.15;4.72;;;;;;;;;;5020260;28;20064;-72
2022/06/20 11:00:52;;;;;;;9.75;3.90;;;;;;;;;;5018593;28;20397;-72
2022/06/20 11:03:38;;;;;;;11.88;4.60;;;;;;;;;;5003733;28;20052;-73
2022/06/20 11:06:10;;;;;;;13.93;5.25;;;;;;;;;;5017401;28;20413;-70
2022/06/20 11:08:37;;;;;;;;;;;;;;;;;;5019996;28;20057;-70
2022/06/20 11:11:15;;;;;;;7.28;3.60;;;;;;;;;;5018463;28;19921;-70
2022/06/20 11:14:05;;;;;;;7.72;4.25;;;;;;;;;;5014569;28;20050;-68
2022/06/20 11:16:57;;;;;;;9.23;4.07;;;;;;;;;;4986085;28;20563;-76
2022/06/20 11:19:34;;;;;;;11.82;4.18;;;;;;;;;;5014327;28;20054;-67
2022/06/20 11:22:37;;;;;;;11.90;4.68;;;;;;;;;;5036018;28;20041;-66
2022/06/20 11:25:43;;;;;;;12.55;4.63;;;;;;;;;;5021116;28;20076;-66
2022/06/20 11:28:31;;;;;;;9.10;4.57;;;;;;;;;;5017142;28;20559;-69
2022/06/20 11:31:25;;;;;;;9.35;4.53;;;;;;;;;;5015424;28;20060;-67
2022/06/20 11:34:29;;;;;;;10.00;4.68;;;;;;;;;;5001360;28;20042;-69
2022/06/20 11:37:12;;;;;;;8.93;4.82;;;;;;;;;;5014625;28;20046;-73
2022/06/20 11:40:07;;;;;;;10.02;4.60;;;;;;;;;;5001053;28;20457;-76
2022/06/20 11:42:49;;;;;;;6.97;3.67;;;;;;;;;;5013870;28;20045;-78
2022/06/20 11:45:38;;;;;;;9.73;4.13;;;;;;;;;;5016628;28;20440;-66
2022/06/20 11:48:40;;;;;;;7.82;3.70;;;;;;;;;;5020040;28;20416;-65
2022/06/20 11:51:14;;;;;;;7.55;3.75;;;;;;;;;;4985628;28;20054;-65
2022/06/20 11:54:05;;;;;;;10.27;3.20;;;;;;;;;;5018852;28;20041;-65
2022/06/20 11:56:48;;;;;;;9.80;3.50;;;;;;;;;;5019982;28;20045;-65
2022/06/20 11:59:45;;;;;;;7.10;3.40;;;;;;;;;;5017215;28;20708;-65
2022/06/20 12:02:31;;;;;;;7.05;4.05;;;;;;;;;;5016539;28;20046;-65
2022/06/20 12:05:19;;;;;;;6.45;3.58;;;;;;;;;;5015364;28;20061;-65
2022/06/20 12:07:52;;;;;;;10.43;4.30;;;;;;;;;;5014017;28;20519;-65
2022/06/20 12:10:25;;;;;;;7.97;4.30;;;;;;;;;;5022524;28;20511;-65
2022/06/20 12:13:04;;;;;;;9.45;4.35;;;;;;;;;;5015763;28;20042;-65
2022/06/20 12:15:42;;;;;;;9.57;4.03;;;;;;;;;;5016067;28;20046;-64
2022/06/20 12:23:18;;;;;;;10.27;4.20;;;;;;;;;;5003458;28;20524;-65
2022/06/20 12:24:16;;;;;;;10.25;4.03;;;;;;;;;;5016772;28;20049;-65
2022/06/20 12:26:43;;;;;;;11.98;3.58;;;;;;;;;;5020556;28;20096;-65
2022/06/20 12:29:18;;;;;;;8.50;3.30;;;;;;;;;;5018229;28;20053;-65
2022/06/20 12:31:48;;;;;;;6.70;3.13;;;;;;;;;;5004212;28;20419;-65
2022/06/20 12:34:54;;;;;;;9.55;3.08;;;;;;;;;;5015190;28;20428;-65
2022/06/20 12:37:43;;;;;;;9.35;3.55;;;;;;;;;;5022070;28;20136;-65
2022/06/20 12:40:22;;;;;;;12.15;3.58;;;;;;;;;;5020185;28;20063;-66
2022/06/20 12:43:06;;;;;;;10.57;3.28;;;;;;;;;;5021317;28;20052;-65
2022/06/20 12:45:55;;;;;;;10.63;3.85;;;;;;;;;;4984374;28;20429;-65
2022/06/20 12:48:44;;;;;;;7.03;3.22;;;;;;;;;;5018911;28;20137;-65
2022/06/20 12:51:31;;;;;;;8.52;4.00;;;;;;;;;;5004495;28;20058;-64
2022/06/20 12:54:00;;;;;;;10.18;3.38;;;;;;;;;;5023539;28;20064;-65
2022/06/20 12:56:36;;;;;;;10.75;4.15;;;;;;;;;;5021264;28;20080;-65
2022/06/20 12:59:26;;;;;;;10.13;3.63;;;;;;;;;;5019363;28;20403;-65
2022/06/20 13:02:06;;;;;;;8.52;3.30;;;;;;;;;;5018505;28;20053;-65
2022/06/20 13:05:00;;;;;;;9.13;3.72;;;;;;;;;;5019184;28;20061;-66
2022/06/20 13:07:50;;;;;;;10.40;3.33;;;;;;;;;;5019940;28;20175;-65
2022/06/20 13:10:33;;;;;;;6.90;3.38;;;;;;;;;;5021707;28;20056;-66
2022/06/20 13:13:23;;;;;;;8.48;3.60;;;;;;;;;;5023808;28;20046;-65
2022/06/20 13:16:28;;;;;;;8.57;3.45;;;;;;;;;;5022599;28;20041;-65
2022/06/20 13:19:04;;;;;;;9.57;3.42;;;;;;;;;;5035621;28;20497;-65
2022/06/20 13:21:30;;;;;;;8.88;3.45;;;;;;;;;;5019788;28;20050;-65
2022/06/20 13:24:18;;;;;;;9.68;3.15;;;;;;;;;;5019050;28;20045;-66
2022/06/20 13:26:54;;;;;;;9.98;3.13;;;;;;;;;;5020213;28;20057;-65
2022/06/20 13:29:27;;;;;;;9.43;2.95;;;;;;;;;;5020565;28;20054;-64
2022/06/20 13:32:30;;;;;;;6.55;2.67;;;;;;;;;;5015961;28;20050;-64
2022/06/20 13:35:03;;;;;;;6.30;3.42;;;;;;;;;;5020146;28;20550;-65
2022/06/20 13:37:35;;;;;;;5.40;2.85;;;;;;;;;;5019216;28;20979;-66
2022/06/20 13:40:18;;;;;;;10.65;2.70;;;;;;;;;;5020025;28;20053;-65
2022/06/20 13:43:06;;;;;;;8.77;3.40;;;;;;;;;;5003131;28;20056;-66
2022/06/20 13:45:49;;;;;;;7.72;2.90;;;;;;;;;;5017900;28;20053;-65
2022/06/20 13:48:18;;;;;;;;;;;;;;;;;;5017642;28;20158;-65
2022/06/20 13:51:05;;;;;;;6.03;3.80;;;;;;;;;;5022327;28;19931;-66
2022/06/20 13:53:38;;;;;;;5.88;2.92;;;;;;;;;;4989860;28;20041;-66
2022/06/20 13:56:11;;;;;;;7.95;3.13;;;;;;;;;;5002777;28;20061;-67
2022/06/20 13:59:06;;;;;;;4.10;2.45;;;;;;;;;;5019925;28;20053;-74
2022/06/20 14:01:38;;;;;;;5.15;2.83;;;;;;;;;;5017180;28;20050;-67
2022/06/20 14:04:08;;;;;;;;;;;;;;;;;;5023181;28;20056;-68
2022/06/20 14:07:01;;;;;;;6.43;2.97;;;;;;;;;;5015477;28;20012;-73
2022/06/20 14:09:35;;;;;;;6.68;2.88;;;;;;;;;;5017886;28;20050;-68
2022/06/20 14:12:04;;;;;;;6.90;3.05;;;;;;;;;;5000007;28;20057;-68
2022/06/20 14:14:34;;;;;;;3.08;2.33;;;;;;;;;;4999722;28;20520;-68
2022/06/20 14:17:16;;;;;;;6.22;2.75;;;;;;;;;;4990064;28;20057;-68
2022/06/20 14:19:47;;;;;;;6.65;2.88;;;;;;;;;;4989552;28;20532;-68
2022/06/20 14:22:20;;;;;;;4.70;2.80;;;;;;;;;;4990783;28;20081;-68
2022/06/20 14:24:51;;;;;;;5.95;2.53;;;;;;;;;;4990250;28;20050;-68
2022/06/20 14:27:23;;;;;;;6.78;2.85;;;;;;;;;;4977442;28;20404;-67
2022/06/20 14:29:58;;;;;;;6.43;3.00;;;;;;;;;;5010529;28;20505;-67
2022/06/20 14:32:34;;;;;;;7.70;2.55;;;;;;;;;;5010292;28;20061;-68
2022/06/20 14:35:22;;;;;;;5.63;2.60;;;;;;;;;;4994066;28;20515;-67
2022/06/20 14:37:58;;;;;;;3.72;2.22;;;;;;;;;;5010091;28;20050;-67
2022/06/20 14:40:59;;;;;;;3.65;2.00;;;;;;;;;;4997858;28;20405;-67
2022/06/20 14:43:29;;;;;;;6.40;2.85;;;;;;;;;;4975944;28;20073;-68
2022/06/20 14:46:08;;;;;;;8.18;2.70;;;;;;;;;;4988763;28;20342;-67
2022/06/20 14:48:41;;;;;;;4.97;2.47;;;;;;;;;;4990916;28;20088;-67
2022/06/20 14:51:11;;;;;;;;;;;;;;;;;;4990027;28;20050;-67
2022/06/20 14:53:41;;;;;;;4.78;2.22;;;;;;;;;;5009610;28;19925;-67
2022/06/20 14:56:19;;;;;;;3.28;2.22;;;;;;;;;;5010538;28;20073;-68
2022/06/20 14:59:10;;;;;;;5.70;2.40;;;;;;;;;;5008230;28;20073;-67
2022/06/20 15:01:44;;;;;;;5.05;2.33;;;;;;;;;;5009073;28;20516;-67
2022/06/20 15:04:17;;;;;;;3.38;2.20;;;;;;;;;;5008926;28;20508;-68
2022/06/20 15:07:03;;;;;;;3.35;2.55;;;;;;;;;;5009130;28;20060;-67
2022/06/20 15:09:33;;;;;;;5.40;2.63;;;;;;;;;;4991066;28;20398;-67
2022/06/20 15:12:37;;;;;;;6.00;2.70;;;;;;;;;;4973462;28;20050;-68
2022/06/20 15:15:26;;;;;;;7.18;2.75;;;;;;;;;;4990239;28;20054;-67
2022/06/20 15:17:56;;;;;;;4.97;2.55;;;;;;;;;;4989417;28;20058;-70
2022/06/20 15:20:26;;;;;;;3.08;2.22;;;;;;;;;;4990471;28;20417;-70
2022/06/20 15:22:54;;;;;;;3.38;2.53;;;;;;;;;;4989058;28;20054;-70
2022/06/20 15:25:39;;;;;;;4.15;2.22;;;;;;;;;;5013773;28;20054;-69
2022/06/20 15:28:12;;;;;;;5.15;2.72;;;;;;;;;;4995047;28;20054;-70
2022/06/20 15:30:54;;;;;;;3.53;2.00;;;;;;;;;;4992531;28;20489;-70
2022/06/20 15:33:25;;;;;;;;;;;;;;;;;;4992960;28;20045;-71
2022/06/20 15:36:10;;;;;;;3.47;2.10;;;;;;;;;;4990208;28;20006;-69
2022/06/20 15:38:44;;;;;;;4.70;2.72;;;;;;;;;;4988857;28;20055;-70
2022/06/20 15:41:15;;;;;;;5.25;2.55;;;;;;;;;;4973731;28;20137;-70
2022/06/20 15:44:00;;;;;;;4.00;1.98;;;;;;;;;;4990480;28;20097;-69
2022/06/20 15:46:47;;;;;;;2.20;1.92;;;;;;;;;;4996429;28;20054;-71
2022/06/20 15:49:27;;;;;;;3.08;2.42;;;;;;;;;;5004252;28;20050;-69
2022/06/20 15:52:10;;;;;;;3.47;2.47;;;;;;;;;;4992930;28;20058;-68